sensor_id;sensor_type;location;lat;lon;timestamp;temperature;humidity
1592;DHT22;789;51.612;7.510;2022-11-06T00:00:14;10.20;1.00
1592;DHT22;789;51.612;7.510;2022-11-06T00:02:41;10.20;1.00
1592;DHT22;789;51.612;7.510;2022-11-06T00:05:08;10.20;1.00
1592;DHT22;789;51.612;7.510;2022-11-06T00:07:52;10.20;1.00
1592;DHT22;789;51.612;7.510;2022-11-06T00:10:19;10.20;1.00
1592;DHT22;789;51.612;7.510;2022-11-06T00:12:46;10.30;1.00
1592;DHT22;789;51.612;7.510;2022-11-06T00:15:15;10.30;1.00
1592;DHT22;789;51.612;7.510;2022-11-06T00:17:41;10.30;1.00
1592;DHT22;789;51.612;7.510;2022-11-06T00:20:10;10.30;1.00
1592;DHT22;789;51.612;7.510;2022-11-06T00:22:37;10.30;1.00
1592;DHT22;789;51.612;7.510;2022-11-06T00:25:04;10.30;1.00
1592;DHT22;789;51.612;7.510;2022-11-06T00:27:34;10.30;1.00
1592;DHT22;789;51.612;7.510;2022-11-06T00:30:02;10.40;1.00
1592;DHT22;789;51.612;7.510;2022-11-06T00:32:30;10.40;1.00
1592;DHT22;789;51.612;7.510;2022-11-06T00:34:57;10.40;1.00
1592;DHT22;789;51.612;7.510;2022-11-06T00:37:24;10.50;1.00
1592;DHT22;789;51.612;7.510;2022-11-06T00:39:51;10.40;1.00
1592;DHT22;789;51.612;7.510;2022-11-06T00:42:17;10.40;1.00
1592;DHT22;789;51.612;7.510;2022-11-06T00:44:44;10.40;1.00
1592;DHT22;789;51.612;7.510;2022-11-06T00:47:11;10.50;1.00
1592;DHT22;789;51.612;7.510;2022-11-06T00:49:39;10.50;1.00
1592;DHT22;789;51.612;7.510;2022-11-06T00:52:05;10.60;1.00
1592;DHT22;789;51.612;7.510;2022-11-06T00:54:32;10.50;1.00
1592;DHT22;789;51.612;7.510;2022-11-06T00:56:59;10.50;1.00
1592;DHT22;789;51.612;7.510;2022-11-06T00:59:25;10.50;1.00
1592;DHT22;789;51.612;7.510;2022-11-06T01:01:52;10.40;1.00
1592;DHT22;789;51.612;7.510;2022-11-06T01:04:21;10.40;1.00
1592;DHT22;789;51.612;7.510;2022-11-06T01:06:51;10.40;1.00
1592;DHT22;789;51.612;7.510;2022-11-06T01:09:21;10.30;1.00
1592;DHT22;789;51.612;7.510;2022-11-06T01:11:49;10.20;1.00
1592;DHT22;789;51.612;7.510;2022-11-06T01:14:17;10.20;1.00
1592;DHT22;789;51.612;7.510;2022-11-06T01:16:45;10.20;1.00
1592;DHT22;789;51.612;7.510;2022-11-06T01:19:12;10.10;1.00
1592;DHT22;789;51.612;7.510;2022-11-06T01:21:41;10.20;1.00
1592;DHT22;789;51.612;7.510;2022-11-06T01:24:12;10.20;1.00
1592;DHT22;789;51.612;7.510;2022-11-06T01:26:39;10.20;1.00
1592;DHT22;789;51.612;7.510;2022-11-06T01:29:09;10.20;1.00
1592;DHT22;789;51.612;7.510;2022-11-06T01:31:36;10.10;1.00
1592;DHT22;789;51.612;7.510;2022-11-06T01:34:04;10.10;1.00
1592;DHT22;789;51.612;7.510;2022-11-06T01:36:31;10.10;1.00
1592;DHT22;789;51.612;7.510;2022-11-06T01:39:04;10.10;1.00
1592;DHT22;789;51.612;7.510;2022-11-06T01:41:34;10.10;1.00
1592;DHT22;789;51.612;7.510;2022-11-06T01:44:02;10.10;1.00
1592;DHT22;789;51.612;7.510;2022-11-06T01:46:31;10.00;1.00
1592;DHT22;789;51.612;7.510;2022-11-06T01:49:01;10.00;1.00
1592;DHT22;789;51.612;7.510;2022-11-06T01:51:33;10.00;1.00
1592;DHT22;789;51.612;7.510;2022-11-06T01:54:03;9.90;1.00
1592;DHT22;789;51.612;7.510;2022-11-06T01:56:31;9.90;1.00
1592;DHT22;789;51.612;7.510;2022-11-06T01:58:58;9.90;1.00
1592;DHT22;789;51.612;7.510;2022-11-06T02:01:26;9.90;1.00
1592;DHT22;789;51.612;7.510;2022-11-06T02:03:57;9.80;1.00
1592;DHT22;789;51.612;7.510;2022-11-06T02:06:25;9.80;1.00
1592;DHT22;789;51.612;7.510;2022-11-06T02:08:52;9.80;1.00
1592;DHT22;789;51.612;7.510;2022-11-06T02:11:18;9.70;1.00
1592;DHT22;789;51.612;7.510;2022-11-06T02:13:59;9.70;1.00
1592;DHT22;789;51.612;7.510;2022-11-06T02:16:33;9.70;1.00
1592;DHT22;789;51.612;7.510;2022-11-06T02:19:15;9.70;1.00
1592;DHT22;789;51.612;7.510;2022-11-06T02:21:58;9.70;1.00
1592;DHT22;789;51.612;7.510;2022-11-06T02:27:28;9.70;1.00
1592;DHT22;789;51.612;7.510;2022-11-06T02:29:58;9.70;1.00
1592;DHT22;789;51.612;7.510;2022-11-06T02:32:29;9.70;1.00
1592;DHT22;789;51.612;7.510;2022-11-06T02:35:00;9.70;1.00
1592;DHT22;789;51.612;7.510;2022-11-06T02:37:33;9.70;1.00
1592;DHT22;789;51.612;7.510;2022-11-06T02:40:05;9.70;1.00
1592;DHT22;789;51.612;7.510;2022-11-06T02:42:36;9.70;1.00
1592;DHT22;789;51.612;7.510;2022-11-06T02:45:05;9.70;1.00
1592;DHT22;789;51.612;7.510;2022-11-06T02:47:33;9.70;1.00
1592;DHT22;789;51.612;7.510;2022-11-06T02:50:04;9.80;1.00
1592;DHT22;789;51.612;7.510;2022-11-06T02:52:36;9.80;1.00
1592;DHT22;789;51.612;7.510;2022-11-06T02:55:08;9.80;1.00
1592;DHT22;789;51.612;7.510;2022-11-06T02:57:41;9.80;1.00
1592;DHT22;789;51.612;7.510;2022-11-06T03:00:11;9.70;1.00
1592;DHT22;789;51.612;7.510;2022-11-06T03:02:41;9.80;1.00
1592;DHT22;789;51.612;7.510;2022-11-06T03:05:13;9.80;1.00
1592;DHT22;789;51.612;7.510;2022-11-06T03:07:46;9.80;1.00
1592;DHT22;789;51.612;7.510;2022-11-06T03:10:13;9.80;1.00
1592;DHT22;789;51.612;7.510;2022-11-06T03:12:49;9.80;1.00
1592;DHT22;789;51.612;7.510;2022-11-06T03:15:27;9.80;1.00
1592;DHT22;789;51.612;7.510;2022-11-06T03:18:04;9.70;1.00
1592;DHT22;789;51.612;7.510;2022-11-06T03:20:36;9.70;1.00
1592;DHT22;789;51.612;7.510;2022-11-06T03:23:10;9.70;1.00
1592;DHT22;789;51.612;7.510;2022-11-06T03:25:43;9.60;1.00
1592;DHT22;789;51.612;7.510;2022-11-06T03:28:20;9.60;1.00
1592;DHT22;789;51.612;7.510;2022-11-06T03:30:51;9.50;1.00
1592;DHT22;789;51.612;7.510;2022-11-06T03:33:22;9.50;1.00
1592;DHT22;789;51.612;7.510;2022-11-06T03:35:53;9.50;1.00
1592;DHT22;789;51.612;7.510;2022-11-06T03:38:25;9.50;1.00
1592;DHT22;789;51.612;7.510;2022-11-06T03:40:58;9.40;1.00
1592;DHT22;789;51.612;7.510;2022-11-06T03:43:30;9.40;1.00
1592;DHT22;789;51.612;7.510;2022-11-06T03:46:01;9.50;1.00
1592;DHT22;789;51.612;7.510;2022-11-06T03:48:33;9.40;1.00
1592;DHT22;789;51.612;7.510;2022-11-06T03:51:04;9.40;1.00
1592;DHT22;789;51.612;7.510;2022-11-06T03:53:36;9.40;1.00
1592;DHT22;789;51.612;7.510;2022-11-06T03:56:09;9.40;1.00
1592;DHT22;789;51.612;7.510;2022-11-06T03:58:43;9.40;1.00
1592;DHT22;789;51.612;7.510;2022-11-06T04:01:12;9.50;1.00
1592;DHT22;789;51.612;7.510;2022-11-06T04:03:43;9.50;1.00
1592;DHT22;789;51.612;7.510;2022-11-06T04:06:14;9.50;1.00
1592;DHT22;789;51.612;7.510;2022-11-06T04:08:43;9.50;1.00
1592;DHT22;789;51.612;7.510;2022-11-06T04:11:33;9.50;1.00
1592;DHT22;789;51.612;7.510;2022-11-06T04:14:22;9.50;1.00
1592;DHT22;789;51.612;7.510;2022-11-06T04:16:53;9.60;1.00
1592;DHT22;789;51.612;7.510;2022-11-06T04:19:21;9.50;1.00
1592;DHT22;789;51.612;7.510;2022-11-06T04:21:59;9.50;1.00
1592;DHT22;789;51.612;7.510;2022-11-06T04:24:35;9.60;1.00
1592;DHT22;789;51.612;7.510;2022-11-06T04:27:47;9.60;1.00
1592;DHT22;789;51.612;7.510;2022-11-06T04:30:16;9.50;1.00
1592;DHT22;789;51.612;7.510;2022-11-06T04:32:56;9.50;1.00
1592;DHT22;789;51.612;7.510;2022-11-06T04:35:30;9.50;1.00
1592;DHT22;789;51.612;7.510;2022-11-06T04:38:02;9.50;1.00
1592;DHT22;789;51.612;7.510;2022-11-06T04:40:39;9.60;1.00
1592;DHT22;789;51.612;7.510;2022-11-06T04:43:13;9.50;1.00
1592;DHT22;789;51.612;7.510;2022-11-06T04:45:45;9.50;1.00
1592;DHT22;789;51.612;7.510;2022-11-06T04:48:13;9.40;1.00
1592;DHT22;789;51.612;7.510;2022-11-06T04:50:44;9.40;1.00
1592;DHT22;789;51.612;7.510;2022-11-06T04:53:13;9.40;1.00
1592;DHT22;789;51.612;7.510;2022-11-06T04:55:44;9.40;1.00
1592;DHT22;789;51.612;7.510;2022-11-06T04:58:12;9.40;1.00
1592;DHT22;789;51.612;7.510;2022-11-06T05:00:43;9.40;1.00
1592;DHT22;789;51.612;7.510;2022-11-06T05:03:10;9.40;1.00
1592;DHT22;789;51.612;7.510;2022-11-06T05:05:37;9.30;1.00
1592;DHT22;789;51.612;7.510;2022-11-06T05:08:04;9.30;1.00
1592;DHT22;789;51.612;7.510;2022-11-06T05:10:31;9.20;1.00
1592;DHT22;789;51.612;7.510;2022-11-06T05:12:57;9.20;1.00
1592;DHT22;789;51.612;7.510;2022-11-06T05:15:24;9.20;1.00
1592;DHT22;789;51.612;7.510;2022-11-06T05:17:52;9.20;1.00
1592;DHT22;789;51.612;7.510;2022-11-06T05:20:19;9.20;1.00
1592;DHT22;789;51.612;7.510;2022-11-06T05:22:45;9.20;1.00
1592;DHT22;789;51.612;7.510;2022-11-06T05:25:25;9.20;1.00
1592;DHT22;789;51.612;7.510;2022-11-06T05:27:52;9.20;1.00
1592;DHT22;789;51.612;7.510;2022-11-06T05:30:19;9.20;1.00
1592;DHT22;789;51.612;7.510;2022-11-06T05:32:46;9.20;1.00
1592;DHT22;789;51.612;7.510;2022-11-06T05:35:15;9.20;1.00
1592;DHT22;789;51.612;7.510;2022-11-06T05:37:42;9.20;1.00
1592;DHT22;789;51.612;7.510;2022-11-06T05:40:09;9.20;1.00
1592;DHT22;789;51.612;7.510;2022-11-06T05:42:36;9.20;1.00
1592;DHT22;789;51.612;7.510;2022-11-06T05:45:04;9.20;1.00
1592;DHT22;789;51.612;7.510;2022-11-06T05:47:34;9.30;1.00
1592;DHT22;789;51.612;7.510;2022-11-06T05:50:01;9.30;1.00
1592;DHT22;789;51.612;7.510;2022-11-06T05:52:29;9.30;1.00
1592;DHT22;789;51.612;7.510;2022-11-06T05:54:56;9.30;1.00
1592;DHT22;789;51.612;7.510;2022-11-06T05:57:23;9.30;1.00
1592;DHT22;789;51.612;7.510;2022-11-06T05:59:49;9.30;1.00
1592;DHT22;789;51.612;7.510;2022-11-06T06:02:16;9.30;1.00
1592;DHT22;789;51.612;7.510;2022-11-06T06:04:43;9.30;1.00
1592;DHT22;789;51.612;7.510;2022-11-06T06:07:09;9.30;1.00
1592;DHT22;789;51.612;7.510;2022-11-06T06:09:37;9.20;1.00
1592;DHT22;789;51.612;7.510;2022-11-06T06:12:05;9.20;1.00
1592;DHT22;789;51.612;7.510;2022-11-06T06:14:32;9.10;1.00
1592;DHT22;789;51.612;7.510;2022-11-06T06:16:58;9.10;1.00
1592;DHT22;789;51.612;7.510;2022-11-06T06:19:25;9.10;1.00
1592;DHT22;789;51.612;7.510;2022-11-06T06:21:52;9.10;1.00
1592;DHT22;789;51.612;7.510;2022-11-06T06:24:18;9.10;1.00
1592;DHT22;789;51.612;7.510;2022-11-06T06:26:46;9.10;1.00
1592;DHT22;789;51.612;7.510;2022-11-06T06:29:13;9.00;1.00
1592;DHT22;789;51.612;7.510;2022-11-06T06:31:40;9.00;1.00
1592;DHT22;789;51.612;7.510;2022-11-06T06:34:07;9.00;1.00
1592;DHT22;789;51.612;7.510;2022-11-06T06:36:34;9.00;1.00
1592;DHT22;789;51.612;7.510;2022-11-06T06:39:00;9.00;1.00
1592;DHT22;789;51.612;7.510;2022-11-06T06:41:27;9.10;1.00
1592;DHT22;789;51.612;7.510;2022-11-06T06:43:55;9.10;1.00
1592;DHT22;789;51.612;7.510;2022-11-06T06:46:22;9.10;1.00
1592;DHT22;789;51.612;7.510;2022-11-06T06:48:49;9.10;1.00
1592;DHT22;789;51.612;7.510;2022-11-06T06:51:15;9.20;1.00
1592;DHT22;789;51.612;7.510;2022-11-06T06:53:42;9.20;1.00
1592;DHT22;789;51.612;7.510;2022-11-06T06:56:09;9.10;1.00
1592;DHT22;789;51.612;7.510;2022-11-06T06:58:35;9.10;1.00
1592;DHT22;789;51.612;7.510;2022-11-06T07:01:04;9.10;1.00
1592;DHT22;789;51.612;7.510;2022-11-06T07:03:35;9.10;1.00
1592;DHT22;789;51.612;7.510;2022-11-06T07:06:02;9.10;1.00
1592;DHT22;789;51.612;7.510;2022-11-06T07:08:30;9.20;1.00
1592;DHT22;789;51.612;7.510;2022-11-06T07:11:00;9.20;1.00
1592;DHT22;789;51.612;7.510;2022-11-06T07:13:27;9.20;1.00
1592;DHT22;789;51.612;7.510;2022-11-06T07:15:54;9.30;1.00
1592;DHT22;789;51.612;7.510;2022-11-06T07:18:23;9.20;1.00
1592;DHT22;789;51.612;7.510;2022-11-06T07:20:50;9.20;1.00
1592;DHT22;789;51.612;7.510;2022-11-06T07:23:17;9.20;1.00
1592;DHT22;789;51.612;7.510;2022-11-06T07:25:43;9.20;1.00
1592;DHT22;789;51.612;7.510;2022-11-06T07:28:10;9.20;1.00
1592;DHT22;789;51.612;7.510;2022-11-06T07:30:37;9.20;1.00
1592;DHT22;789;51.612;7.510;2022-11-06T07:33:04;9.30;1.00
1592;DHT22;789;51.612;7.510;2022-11-06T07:35:33;9.30;1.00
1592;DHT22;789;51.612;7.510;2022-11-06T07:38:02;9.40;1.00
1592;DHT22;789;51.612;7.510;2022-11-06T07:40:30;9.50;1.00
1592;DHT22;789;51.612;7.510;2022-11-06T07:43:02;9.50;1.00
1592;DHT22;789;51.612;7.510;2022-11-06T07:45:28;9.60;1.00
1592;DHT22;789;51.612;7.510;2022-11-06T07:47:55;9.80;1.00
1592;DHT22;789;51.612;7.510;2022-11-06T07:50:22;10.00;1.00
1592;DHT22;789;51.612;7.510;2022-11-06T07:52:50;10.50;1.00
1592;DHT22;789;51.612;7.510;2022-11-06T07:55:17;11.10;1.00
1592;DHT22;789;51.612;7.510;2022-11-06T07:57:44;11.70;1.00
1592;DHT22;789;51.612;7.510;2022-11-06T08:00:12;12.40;1.00
1592;DHT22;789;51.612;7.510;2022-11-06T08:02:39;13.00;1.00
1592;DHT22;789;51.612;7.510;2022-11-06T08:05:07;13.30;1.00
1592;DHT22;789;51.612;7.510;2022-11-06T08:07:34;13.80;1.00
1592;DHT22;789;51.612;7.510;2022-11-06T08:10:03;13.90;1.00
1592;DHT22;789;51.612;7.510;2022-11-06T08:12:29;14.00;1.00
1592;DHT22;789;51.612;7.510;2022-11-06T08:14:56;13.90;1.00
1592;DHT22;789;51.612;7.510;2022-11-06T08:17:23;14.20;1.00
1592;DHT22;789;51.612;7.510;2022-11-06T08:19:50;14.50;1.00
1592;DHT22;789;51.612;7.510;2022-11-06T08:22:16;14.70;1.00
1592;DHT22;789;51.612;7.510;2022-11-06T08:24:43;14.90;1.00
1592;DHT22;789;51.612;7.510;2022-11-06T08:27:11;14.90;1.00
1592;DHT22;789;51.612;7.510;2022-11-06T08:29:38;14.90;1.00
1592;DHT22;789;51.612;7.510;2022-11-06T08:32:05;15.10;1.00
1592;DHT22;789;51.612;7.510;2022-11-06T08:34:33;15.60;1.00
1592;DHT22;789;51.612;7.510;2022-11-06T08:37:00;15.90;1.00
1592;DHT22;789;51.612;7.510;2022-11-06T08:39:26;16.00;1.00
1592;DHT22;789;51.612;7.510;2022-11-06T08:41:53;16.20;1.00
1592;DHT22;789;51.612;7.510;2022-11-06T08:44:22;16.10;1.00
1592;DHT22;789;51.612;7.510;2022-11-06T08:46:49;16.00;1.00
1592;DHT22;789;51.612;7.510;2022-11-06T08:49:15;16.30;1.00
1592;DHT22;789;51.612;7.510;2022-11-06T08:51:42;16.70;1.00
1592;DHT22;789;51.612;7.510;2022-11-06T08:54:09;17.00;1.00
1592;DHT22;789;51.612;7.510;2022-11-06T08:56:36;17.20;1.00
1592;DHT22;789;51.612;7.510;2022-11-06T08:59:03;17.50;1.00
1592;DHT22;789;51.612;7.510;2022-11-06T09:01:31;18.10;1.00
1592;DHT22;789;51.612;7.510;2022-11-06T09:03:58;18.60;1.00
1592;DHT22;789;51.612;7.510;2022-11-06T09:06:24;18.40;1.00
1592;DHT22;789;51.612;7.510;2022-11-06T09:08:51;18.10;1.00
1592;DHT22;789;51.612;7.510;2022-11-06T09:11:18;17.90;1.00
1592;DHT22;789;51.612;7.510;2022-11-06T09:13:45;17.70;1.00
1592;DHT22;789;51.612;7.510;2022-11-06T09:16:11;18.00;1.00
1592;DHT22;789;51.612;7.510;2022-11-06T09:18:39;18.50;1.00
1592;DHT22;789;51.612;7.510;2022-11-06T09:21:06;19.20;1.00
1592;DHT22;789;51.612;7.510;2022-11-06T09:23:33;19.30;1.00
1592;DHT22;789;51.612;7.510;2022-11-06T09:26:00;19.50;1.00
1592;DHT22;789;51.612;7.510;2022-11-06T09:28:27;19.20;1.00
1592;DHT22;789;51.612;7.510;2022-11-06T09:30:53;18.80;1.00
1592;DHT22;789;51.612;7.510;2022-11-06T09:33:21;18.70;1.00
1592;DHT22;789;51.612;7.510;2022-11-06T09:35:50;18.60;1.00
1592;DHT22;789;51.612;7.510;2022-11-06T09:38:17;18.70;1.00
1592;DHT22;789;51.612;7.510;2022-11-06T09:40:48;18.20;1.00
1592;DHT22;789;51.612;7.510;2022-11-06T09:43:27;17.20;1.00
1592;DHT22;789;51.612;7.510;2022-11-06T09:46:04;16.40;1.00
1592;DHT22;789;51.612;7.510;2022-11-06T09:48:36;15.70;1.00
1592;DHT22;789;51.612;7.510;2022-11-06T09:51:14;14.90;1.00
1592;DHT22;789;51.612;7.510;2022-11-06T09:53:46;14.50;1.00
1592;DHT22;789;51.612;7.510;2022-11-06T09:56:15;14.20;1.00
1592;DHT22;789;51.612;7.510;2022-11-06T09:58:43;13.90;1.00
1592;DHT22;789;51.612;7.510;2022-11-06T10:01:15;13.60;1.00
1592;DHT22;789;51.612;7.510;2022-11-06T10:03:46;13.50;1.00
1592;DHT22;789;51.612;7.510;2022-11-06T10:06:16;13.40;1.00
1592;DHT22;789;51.612;7.510;2022-11-06T10:08:43;13.40;1.00
1592;DHT22;789;51.612;7.510;2022-11-06T10:11:38;13.40;1.00
1592;DHT22;789;51.612;7.510;2022-11-06T10:14:21;13.20;1.00
1592;DHT22;789;51.612;7.510;2022-11-06T10:16:56;13.20;1.00
1592;DHT22;789;51.612;7.510;2022-11-06T10:19:34;13.10;1.00
1592;DHT22;789;51.612;7.510;2022-11-06T10:22:10;13.20;1.00
1592;DHT22;789;51.612;7.510;2022-11-06T10:24:43;13.20;1.00
1592;DHT22;789;51.612;7.510;2022-11-06T10:27:14;13.50;1.00
1592;DHT22;789;51.612;7.510;2022-11-06T10:30:02;13.60;1.00
1592;DHT22;789;51.612;7.510;2022-11-06T10:32:49;13.60;1.00
1592;DHT22;789;51.612;7.510;2022-11-06T10:35:22;13.60;1.00
1592;DHT22;789;51.612;7.510;2022-11-06T10:37:57;13.70;1.00
1592;DHT22;789;51.612;7.510;2022-11-06T10:40:27;13.80;1.00
1592;DHT22;789;51.612;7.510;2022-11-06T10:43:00;13.80;1.00
1592;DHT22;789;51.612;7.510;2022-11-06T10:45:29;13.80;1.00
1592;DHT22;789;51.612;7.510;2022-11-06T10:48:00;13.80;1.00
1592;DHT22;789;51.612;7.510;2022-11-06T10:50:40;13.80;1.00
1592;DHT22;789;51.612;7.510;2022-11-06T10:53:18;13.70;1.00
1592;DHT22;789;51.612;7.510;2022-11-06T10:56:08;13.70;1.00
1592;DHT22;789;51.612;7.510;2022-11-06T10:58:38;13.70;1.00
1592;DHT22;789;51.612;7.510;2022-11-06T11:01:08;13.70;1.00
1592;DHT22;789;51.612;7.510;2022-11-06T11:03:40;13.90;1.00
1592;DHT22;789;51.612;7.510;2022-11-06T11:06:14;14.20;1.00
1592;DHT22;789;51.612;7.510;2022-11-06T11:08:43;14.70;1.00
1592;DHT22;789;51.612;7.510;2022-11-06T11:11:22;15.80;1.00
1592;DHT22;789;51.612;7.510;2022-11-06T11:16:38;18.40;1.00
1592;DHT22;789;51.612;7.510;2022-11-06T11:19:15;18.90;1.00
1592;DHT22;789;51.612;7.510;2022-11-06T11:21:51;18.50;1.00
1592;DHT22;789;51.612;7.510;2022-11-06T11:24:20;17.80;1.00
1592;DHT22;789;51.612;7.510;2022-11-06T11:26:48;17.20;1.00
1592;DHT22;789;51.612;7.510;2022-11-06T11:29:22;17.00;1.00
1592;DHT22;789;51.612;7.510;2022-11-06T11:31:50;16.90;1.00
1592;DHT22;789;51.612;7.510;2022-11-06T11:34:20;17.40;1.00
1592;DHT22;789;51.612;7.510;2022-11-06T11:36:50;18.00;1.00
1592;DHT22;789;51.612;7.510;2022-11-06T11:39:20;18.80;1.00
1592;DHT22;789;51.612;7.510;2022-11-06T11:41:47;19.40;1.00
1592;DHT22;789;51.612;7.510;2022-11-06T11:44:15;19.80;1.00
1592;DHT22;789;51.612;7.510;2022-11-06T11:46:46;20.00;1.00
1592;DHT22;789;51.612;7.510;2022-11-06T11:49:28;20.00;1.00
1592;DHT22;789;51.612;7.510;2022-11-06T11:51:56;19.60;1.00
1592;DHT22;789;51.612;7.510;2022-11-06T11:54:27;18.60;1.00
1592;DHT22;789;51.612;7.510;2022-11-06T11:56:56;17.60;1.00
1592;DHT22;789;51.612;7.510;2022-11-06T11:59:26;16.60;1.00
1592;DHT22;789;51.612;7.510;2022-11-06T12:01:55;15.80;1.00
1592;DHT22;789;51.612;7.510;2022-11-06T12:04:26;15.30;1.00
1592;DHT22;789;51.612;7.510;2022-11-06T12:06:59;14.90;1.00
1592;DHT22;789;51.612;7.510;2022-11-06T12:09:30;14.60;1.00
1592;DHT22;789;51.612;7.510;2022-11-06T12:11:59;14.50;1.00
1592;DHT22;789;51.612;7.510;2022-11-06T12:14:34;14.30;1.00
1592;DHT22;789;51.612;7.510;2022-11-06T12:17:12;14.40;1.00
1592;DHT22;789;51.612;7.510;2022-11-06T12:19:42;14.40;1.00
1592;DHT22;789;51.612;7.510;2022-11-06T12:22:16;14.40;1.00
1592;DHT22;789;51.612;7.510;2022-11-06T12:24:50;14.30;1.00
1592;DHT22;789;51.612;7.510;2022-11-06T12:27:21;14.30;1.00
1592;DHT22;789;51.612;7.510;2022-11-06T12:29:51;14.30;1.00
1592;DHT22;789;51.612;7.510;2022-11-06T12:32:25;14.30;1.00
1592;DHT22;789;51.612;7.510;2022-11-06T12:35:02;14.40;1.00
1592;DHT22;789;51.612;7.510;2022-11-06T12:37:38;14.40;1.00
1592;DHT22;789;51.612;7.510;2022-11-06T12:40:17;14.30;1.00
1592;DHT22;789;51.612;7.510;2022-11-06T12:42:55;14.40;1.00
1592;DHT22;789;51.612;7.510;2022-11-06T12:45:28;14.80;1.00
1592;DHT22;789;51.612;7.510;2022-11-06T12:48:03;15.10;1.00
1592;DHT22;789;51.612;7.510;2022-11-06T12:50:40;15.30;1.00
1592;DHT22;789;51.612;7.510;2022-11-06T12:53:18;15.40;1.00
1592;DHT22;789;51.612;7.510;2022-11-06T12:55:53;15.30;1.00
1592;DHT22;789;51.612;7.510;2022-11-06T12:58:46;15.00;1.00
1592;DHT22;789;51.612;7.510;2022-11-06T13:01:21;14.70;1.00
1592;DHT22;789;51.612;7.510;2022-11-06T13:04:08;14.40;1.00
1592;DHT22;789;51.612;7.510;2022-11-06T13:07:01;14.20;1.00
1592;DHT22;789;51.612;7.510;2022-11-06T13:09:33;14.10;1.00
1592;DHT22;789;51.612;7.510;2022-11-06T13:12:10;13.90;1.00
1592;DHT22;789;51.612;7.510;2022-11-06T13:14:42;14.00;1.00
1592;DHT22;789;51.612;7.510;2022-11-06T13:17:17;13.70;1.00
1592;DHT22;789;51.612;7.510;2022-11-06T13:19:51;13.60;1.00
1592;DHT22;789;51.612;7.510;2022-11-06T13:22:23;13.60;1.00
1592;DHT22;789;51.612;7.510;2022-11-06T13:24:58;13.60;1.00
1592;DHT22;789;51.612;7.510;2022-11-06T13:27:33;13.60;1.00
1592;DHT22;789;51.612;7.510;2022-11-06T13:30:09;13.50;1.00
1592;DHT22;789;51.612;7.510;2022-11-06T13:32:38;13.40;1.00
1592;DHT22;789;51.612;7.510;2022-11-06T13:35:12;13.40;1.00
1592;DHT22;789;51.612;7.510;2022-11-06T13:37:42;13.50;1.00
1592;DHT22;789;51.612;7.510;2022-11-06T13:40:19;13.40;1.00
1592;DHT22;789;51.612;7.510;2022-11-06T13:42:52;13.40;1.00
1592;DHT22;789;51.612;7.510;2022-11-06T13:45:21;13.30;1.00
1592;DHT22;789;51.612;7.510;2022-11-06T13:47:59;13.40;1.00
1592;DHT22;789;51.612;7.510;2022-11-06T13:50:31;13.50;1.00
1592;DHT22;789;51.612;7.510;2022-11-06T13:53:06;13.60;1.00
1592;DHT22;789;51.612;7.510;2022-11-06T13:55:50;13.50;1.00
1592;DHT22;789;51.612;7.510;2022-11-06T13:58:35;13.60;1.00
1592;DHT22;789;51.612;7.510;2022-11-06T14:01:14;13.60;1.00
1592;DHT22;789;51.612;7.510;2022-11-06T14:06:52;13.50;1.00
1592;DHT22;789;51.612;7.510;2022-11-06T14:09:22;13.40;1.00
1592;DHT22;789;51.612;7.510;2022-11-06T14:11:51;13.30;1.00
1592;DHT22;789;51.612;7.510;2022-11-06T14:14:25;13.30;1.00
1592;DHT22;789;51.612;7.510;2022-11-06T14:17:10;13.30;1.00
1592;DHT22;789;51.612;7.510;2022-11-06T14:19:38;13.20;1.00
1592;DHT22;789;51.612;7.510;2022-11-06T14:22:16;13.20;1.00
1592;DHT22;789;51.612;7.510;2022-11-06T14:24:43;13.20;1.00
1592;DHT22;789;51.612;7.510;2022-11-06T14:27:12;13.20;1.00
1592;DHT22;789;51.612;7.510;2022-11-06T14:30:01;13.20;1.00
1592;DHT22;789;51.612;7.510;2022-11-06T14:32:35;13.20;1.00
1592;DHT22;789;51.612;7.510;2022-11-06T14:40:57;13.30;1.00
1592;DHT22;789;51.612;7.510;2022-11-06T14:43:28;13.50;1.00
1592;DHT22;789;51.612;7.510;2022-11-06T14:45:59;13.50;1.00
1592;DHT22;789;51.612;7.510;2022-11-06T14:48:28;13.50;1.00
1592;DHT22;789;51.612;7.510;2022-11-06T14:50:58;13.50;1.00
1592;DHT22;789;51.612;7.510;2022-11-06T14:53:29;13.50;1.00
1592;DHT22;789;51.612;7.510;2022-11-06T14:55:59;13.50;1.00
1592;DHT22;789;51.612;7.510;2022-11-06T14:58:28;13.50;1.00
1592;DHT22;789;51.612;7.510;2022-11-06T15:00:58;13.50;1.00
1592;DHT22;789;51.612;7.510;2022-11-06T15:03:30;13.50;1.00
1592;DHT22;789;51.612;7.510;2022-11-06T15:06:00;13.50;1.00
1592;DHT22;789;51.612;7.510;2022-11-06T15:08:53;13.50;1.00
1592;DHT22;789;51.612;7.510;2022-11-06T15:11:51;13.50;1.00
1592;DHT22;789;51.612;7.510;2022-11-06T15:14:55;13.50;1.00
1592;DHT22;789;51.612;7.510;2022-11-06T15:17:32;13.40;1.00
1592;DHT22;789;51.612;7.510;2022-11-06T15:20:22;13.30;1.00
1592;DHT22;789;51.612;7.510;2022-11-06T15:22:58;13.20;1.00
1592;DHT22;789;51.612;7.510;2022-11-06T15:25:27;13.20;1.00
1592;DHT22;789;51.612;7.510;2022-11-06T15:28:03;13.20;1.00
1592;DHT22;789;51.612;7.510;2022-11-06T15:30:39;13.20;1.00
1592;DHT22;789;51.612;7.510;2022-11-06T15:33:11;13.20;1.00
1592;DHT22;789;51.612;7.510;2022-11-06T15:35:39;13.20;1.00
1592;DHT22;789;51.612;7.510;2022-11-06T15:38:12;13.10;1.00
1592;DHT22;789;51.612;7.510;2022-11-06T15:40:42;13.10;1.00
1592;DHT22;789;51.612;7.510;2022-11-06T15:43:23;13.20;1.00
1592;DHT22;789;51.612;7.510;2022-11-06T15:46:05;13.20;1.00
1592;DHT22;789;51.612;7.510;2022-11-06T15:48:33;13.20;1.00
1592;DHT22;789;51.612;7.510;2022-11-06T15:51:00;13.20;1.00
1592;DHT22;789;51.612;7.510;2022-11-06T15:53:28;13.20;1.00
1592;DHT22;789;51.612;7.510;2022-11-06T15:55:57;13.20;1.00
1592;DHT22;789;51.612;7.510;2022-11-06T15:58:27;13.20;1.00
1592;DHT22;789;51.612;7.510;2022-11-06T16:00:55;13.20;1.00
1592;DHT22;789;51.612;7.510;2022-11-06T16:03:23;13.10;1.00
1592;DHT22;789;51.612;7.510;2022-11-06T16:05:53;13.10;1.00
1592;DHT22;789;51.612;7.510;2022-11-06T16:08:22;13.00;1.00
1592;DHT22;789;51.612;7.510;2022-11-06T16:10:50;13.00;1.00
1592;DHT22;789;51.612;7.510;2022-11-06T16:13:19;12.90;1.00
1592;DHT22;789;51.612;7.510;2022-11-06T16:15:49;12.90;1.00
1592;DHT22;789;51.612;7.510;2022-11-06T16:18:20;12.90;1.00
1592;DHT22;789;51.612;7.510;2022-11-06T16:20:49;12.80;1.00
1592;DHT22;789;51.612;7.510;2022-11-06T16:23:21;12.70;1.00
1592;DHT22;789;51.612;7.510;2022-11-06T16:25:56;12.60;1.00
1592;DHT22;789;51.612;7.510;2022-11-06T16:28:25;12.40;1.00
1592;DHT22;789;51.612;7.510;2022-11-06T16:30:56;12.50;1.00
1592;DHT22;789;51.612;7.510;2022-11-06T16:33:24;12.40;1.00
1592;DHT22;789;51.612;7.510;2022-11-06T16:36:05;12.40;1.00
1592;DHT22;789;51.612;7.510;2022-11-06T16:38:41;12.40;1.00
1592;DHT22;789;51.612;7.510;2022-11-06T16:41:10;12.40;1.00
1592;DHT22;789;51.612;7.510;2022-11-06T16:43:37;12.30;1.00
1592;DHT22;789;51.612;7.510;2022-11-06T16:46:05;12.20;1.00
1592;DHT22;789;51.612;7.510;2022-11-06T16:48:39;12.10;1.00
1592;DHT22;789;51.612;7.510;2022-11-06T16:51:08;12.00;1.00
1592;DHT22;789;51.612;7.510;2022-11-06T16:53:48;12.00;1.00
1592;DHT22;789;51.612;7.510;2022-11-06T16:56:21;11.90;1.00
1592;DHT22;789;51.612;7.510;2022-11-06T16:58:51;11.80;1.00
1592;DHT22;789;51.612;7.510;2022-11-06T17:01:19;11.70;1.00
1592;DHT22;789;51.612;7.510;2022-11-06T17:03:48;11.70;1.00
1592;DHT22;789;51.612;7.510;2022-11-06T17:06:19;11.60;1.00
1592;DHT22;789;51.612;7.510;2022-11-06T17:09:02;11.50;1.00
1592;DHT22;789;51.612;7.510;2022-11-06T17:11:29;11.50;1.00
1592;DHT22;789;51.612;7.510;2022-11-06T17:13:56;11.50;1.00
1592;DHT22;789;51.612;7.510;2022-11-06T17:16:25;11.50;1.00
1592;DHT22;789;51.612;7.510;2022-11-06T17:18:52;11.60;1.00